sensor_id;sensor_type;location;lat;lon;timestamp;P1;durP1;ratioP1;P2;durP2;ratioP2
17686;SDS011;8962;52.538;13.266;2023-04-21T00:01:45;19.92;;;7.65;;
17686;SDS011;8962;52.538;13.266;2023-04-21T00:04:13;18.20;;;7.70;;
17686;SDS011;8962;52.538;13.266;2023-04-21T00:06:41;16.88;;;7.85;;
17686;SDS011;8962;52.538;13.266;2023-04-21T00:09:09;14.18;;;7.57;;
17686;SDS011;8962;52.538;13.266;2023-04-21T00:11:36;17.70;;;7.50;;
17686;SDS011;8962;52.538;13.266;2023-04-21T00:14:04;15.68;;;7.20;;
17686;SDS011;8962;52.538;13.266;2023-04-21T00:16:32;23.40;;;8.13;;
17686;SDS011;8962;52.538;13.266;2023-04-21T00:18:59;15.20;;;7.20;;
17686;SDS011;8962;52.538;13.266;2023-04-21T00:21:30;12.07;;;6.90;;
17686;SDS011;8962;52.538;13.266;2023-04-21T00:23:58;14.23;;;7.03;;
17686;SDS011;8962;52.538;13.266;2023-04-21T00:26:25;19.05;;;7.57;;
17686;SDS011;8962;52.538;13.266;2023-04-21T00:28:52;20.80;;;7.78;;
17686;SDS011;8962;52.538;13.266;2023-04-21T00:31:19;15.60;;;7.95;;
17686;SDS011;8962;52.538;13.266;2023-04-21T00:33:48;12.30;;;6.63;;
17686;SDS011;8962;52.538;13.266;2023-04-21T00:36:15;15.93;;;7.38;;
17686;SDS011;8962;52.538;13.266;2023-04-21T00:38:42;20.38;;;7.57;;
17686;SDS011;8962;52.538;13.266;2023-04-21T00:41:09;18.98;;;7.45;;
17686;SDS011;8962;52.538;13.266;2023-04-21T00:43:36;17.52;;;7.38;;
17686;SDS011;8962;52.538;13.266;2023-04-21T00:46:23;14.18;;;7.75;;
17686;SDS011;8962;52.538;13.266;2023-04-21T00:48:53;17.38;;;7.22;;
17686;SDS011;8962;52.538;13.266;2023-04-21T00:51:21;20.10;;;8.18;;
17686;SDS011;8962;52.538;13.266;2023-04-21T00:53:49;17.85;;;8.38;;
17686;SDS011;8962;52.538;13.266;2023-04-21T00:56:16;16.42;;;7.65;;
17686;SDS011;8962;52.538;13.266;2023-04-21T00:58:44;14.93;;;7.72;;
17686;SDS011;8962;52.538;13.266;2023-04-21T01:01:12;16.73;;;8.25;;
17686;SDS011;8962;52.538;13.266;2023-04-21T01:03:43;23.92;;;8.65;;
17686;SDS011;8962;52.538;13.266;2023-04-21T01:06:12;19.80;;;7.57;;
17686;SDS011;8962;52.538;13.266;2023-04-21T01:08:40;18.08;;;8.63;;
17686;SDS011;8962;52.538;13.266;2023-04-21T01:11:09;15.52;;;8.55;;
17686;SDS011;8962;52.538;13.266;2023-04-21T01:13:38;20.65;;;8.93;;
17686;SDS011;8962;52.538;13.266;2023-04-21T01:16:06;13.77;;;8.65;;
17686;SDS011;8962;52.538;13.266;2023-04-21T01:18:33;16.33;;;9.20;;
17686;SDS011;8962;52.538;13.266;2023-04-21T01:21:00;20.58;;;8.65;;
17686;SDS011;8962;52.538;13.266;2023-04-21T01:23:29;13.60;;;8.23;;
17686;SDS011;8962;52.538;13.266;2023-04-21T01:25:57;14.43;;;8.45;;
17686;SDS011;8962;52.538;13.266;2023-04-21T01:28:24;20.65;;;9.40;;
17686;SDS011;8962;52.538;13.266;2023-04-21T01:30:52;19.13;;;8.80;;
17686;SDS011;8962;52.538;13.266;2023-04-21T01:33:21;18.65;;;8.85;;
17686;SDS011;8962;52.538;13.266;2023-04-21T01:35:48;19.73;;;9.85;;
17686;SDS011;8962;52.538;13.266;2023-04-21T01:38:18;20.48;;;9.23;;
17686;SDS011;8962;52.538;13.266;2023-04-21T01:40:48;18.10;;;8.98;;
17686;SDS011;8962;52.538;13.266;2023-04-21T01:43:18;14.50;;;8.65;;
17686;SDS011;8962;52.538;13.266;2023-04-21T01:45:48;14.63;;;8.98;;
17686;SDS011;8962;52.538;13.266;2023-04-21T01:48:15;19.00;;;9.75;;
17686;SDS011;8962;52.538;13.266;2023-04-21T01:50:43;16.98;;;10.23;;
17686;SDS011;8962;52.538;13.266;2023-04-21T01:53:11;20.08;;;9.85;;
17686;SDS011;8962;52.538;13.266;2023-04-21T01:55:39;13.98;;;9.55;;
17686;SDS011;8962;52.538;13.266;2023-04-21T01:58:09;23.48;;;10.05;;
17686;SDS011;8962;52.538;13.266;2023-04-21T02:00:36;16.98;;;9.98;;
17686;SDS011;8962;52.538;13.266;2023-04-21T02:03:04;17.48;;;10.15;;
17686;SDS011;8962;52.538;13.266;2023-04-21T02:05:31;16.35;;;10.38;;
17686;SDS011;8962;52.538;13.266;2023-04-21T02:07:58;20.65;;;10.57;;
17686;SDS011;8962;52.538;13.266;2023-04-21T02:10:25;18.50;;;10.43;;
17686;SDS011;8962;52.538;13.266;2023-04-21T02:12:52;21.48;;;11.40;;
17686;SDS011;8962;52.538;13.266;2023-04-21T02:15:21;16.85;;;10.98;;
17686;SDS011;8962;52.538;13.266;2023-04-21T02:17:48;21.33;;;11.55;;
17686;SDS011;8962;52.538;13.266;2023-04-21T02:20:15;22.33;;;10.57;;
17686;SDS011;8962;52.538;13.266;2023-04-21T02:22:42;16.48;;;10.23;;
17686;SDS011;8962;52.538;13.266;2023-04-21T02:25:09;16.60;;;10.85;;
17686;SDS011;8962;52.538;13.266;2023-04-21T02:27:37;22.63;;;10.73;;
17686;SDS011;8962;52.538;13.266;2023-04-21T02:30:05;19.73;;;10.52;;
17686;SDS011;8962;52.538;13.266;2023-04-21T02:32:34;16.77;;;11.30;;
17686;SDS011;8962;52.538;13.266;2023-04-21T02:35:03;15.00;;;11.00;;
17686;SDS011;8962;52.538;13.266;2023-04-21T02:37:31;19.63;;;11.20;;
17686;SDS011;8962;52.538;13.266;2023-04-21T02:39:58;19.55;;;12.07;;
17686;SDS011;8962;52.538;13.266;2023-04-21T02:42:25;17.77;;;10.95;;
17686;SDS011;8962;52.538;13.266;2023-04-21T02:44:53;17.98;;;11.05;;
17686;SDS011;8962;52.538;13.266;2023-04-21T02:47:20;17.58;;;11.02;;
17686;SDS011;8962;52.538;13.266;2023-04-21T02:49:48;20.25;;;11.65;;
17686;SDS011;8962;52.538;13.266;2023-04-21T02:52:15;23.10;;;11.85;;
17686;SDS011;8962;52.538;13.266;2023-04-21T02:54:44;20.27;;;11.68;;
17686;SDS011;8962;52.538;13.266;2023-04-21T02:57:11;20.65;;;11.63;;
17686;SDS011;8962;52.538;13.266;2023-04-21T02:59:38;20.23;;;11.60;;
17686;SDS011;8962;52.538;13.266;2023-04-21T03:02:05;22.67;;;11.93;;
17686;SDS011;8962;52.538;13.266;2023-04-21T03:04:36;17.92;;;11.95;;
17686;SDS011;8962;52.538;13.266;2023-04-21T03:07:05;18.27;;;12.07;;
17686;SDS011;8962;52.538;13.266;2023-04-21T03:09:37;18.45;;;11.90;;
17686;SDS011;8962;52.538;13.266;2023-04-21T03:12:05;20.77;;;11.65;;
17686;SDS011;8962;52.538;13.266;2023-04-21T03:14:34;20.25;;;11.80;;
17686;SDS011;8962;52.538;13.266;2023-04-21T03:17:01;19.20;;;12.10;;
17686;SDS011;8962;52.538;13.266;2023-04-21T03:19:30;23.30;;;12.18;;
17686;SDS011;8962;52.538;13.266;2023-04-21T03:21:58;17.05;;;11.13;;
17686;SDS011;8962;52.538;13.266;2023-04-21T03:24:26;18.95;;;11.73;;
17686;SDS011;8962;52.538;13.266;2023-04-21T03:26:54;20.30;;;12.50;;
17686;SDS011;8962;52.538;13.266;2023-04-21T03:29:22;20.35;;;12.23;;
17686;SDS011;8962;52.538;13.266;2023-04-21T03:31:49;21.45;;;12.13;;
17686;SDS011;8962;52.538;13.266;2023-04-21T03:34:17;19.33;;;12.00;;
17686;SDS011;8962;52.538;13.266;2023-04-21T03:36:44;18.08;;;12.48;;
17686;SDS011;8962;52.538;13.266;2023-04-21T03:39:11;21.25;;;12.15;;
17686;SDS011;8962;52.538;13.266;2023-04-21T03:41:39;20.55;;;12.13;;
17686;SDS011;8962;52.538;13.266;2023-04-21T03:44:08;19.95;;;12.43;;
17686;SDS011;8962;52.538;13.266;2023-04-21T03:46:35;18.08;;;12.63;;
17686;SDS011;8962;52.538;13.266;2023-04-21T03:49:02;19.95;;;12.13;;
17686;SDS011;8962;52.538;13.266;2023-04-21T03:51:30;23.33;;;13.10;;
17686;SDS011;8962;52.538;13.266;2023-04-21T03:53:57;20.67;;;12.30;;
17686;SDS011;8962;52.538;13.266;2023-04-21T03:56:24;26.92;;;12.68;;
17686;SDS011;8962;52.538;13.266;2023-04-21T03:58:53;20.88;;;13.02;;
17686;SDS011;8962;52.538;13.266;2023-04-21T04:01:20;18.20;;;12.43;;
17686;SDS011;8962;52.538;13.266;2023-04-21T04:03:47;20.38;;;12.52;;
17686;SDS011;8962;52.538;13.266;2023-04-21T04:06:14;19.77;;;13.40;;
17686;SDS011;8962;52.538;13.266;2023-04-21T04:08:41;26.15;;;13.18;;
17686;SDS011;8962;52.538;13.266;2023-04-21T04:11:08;21.65;;;12.95;;
17686;SDS011;8962;52.538;13.266;2023-04-21T04:13:36;17.23;;;12.68;;
17686;SDS011;8962;52.538;13.266;2023-04-21T04:16:05;19.33;;;12.23;;
17686;SDS011;8962;52.538;13.266;2023-04-21T04:18:32;18.05;;;12.60;;
17686;SDS011;8962;52.538;13.266;2023-04-21T04:21:03;20.63;;;13.65;;
17686;SDS011;8962;52.538;13.266;2023-04-21T04:23:31;19.40;;;12.30;;
17686;SDS011;8962;52.538;13.266;2023-04-21T04:25:58;22.55;;;13.13;;
17686;SDS011;8962;52.538;13.266;2023-04-21T04:28:28;19.98;;;12.90;;
17686;SDS011;8962;52.538;13.266;2023-04-21T04:30:55;17.80;;;12.30;;
17686;SDS011;8962;52.538;13.266;2023-04-21T04:33:26;19.25;;;13.00;;
17686;SDS011;8962;52.538;13.266;2023-04-21T04:35:55;19.42;;;12.52;;
17686;SDS011;8962;52.538;13.266;2023-04-21T04:38:23;21.25;;;12.90;;
17686;SDS011;8962;52.538;13.266;2023-04-21T04:40:52;20.60;;;12.85;;
17686;SDS011;8962;52.538;13.266;2023-04-21T04:43:19;20.50;;;12.68;;
17686;SDS011;8962;52.538;13.266;2023-04-21T04:45:46;21.35;;;12.98;;
17686;SDS011;8962;52.538;13.266;2023-04-21T04:48:14;21.65;;;12.82;;
17686;SDS011;8962;52.538;13.266;2023-04-21T04:50:43;17.98;;;12.77;;
17686;SDS011;8962;52.538;13.266;2023-04-21T04:53:10;20.30;;;12.63;;
17686;SDS011;8962;52.538;13.266;2023-04-21T04:55:37;18.73;;;12.40;;
17686;SDS011;8962;52.538;13.266;2023-04-21T04:58:04;20.63;;;13.23;;
17686;SDS011;8962;52.538;13.266;2023-04-21T05:00:31;25.40;;;13.18;;
17686;SDS011;8962;52.538;13.266;2023-04-21T05:02:59;19.17;;;12.70;;
17686;SDS011;8962;52.538;13.266;2023-04-21T05:05:26;25.10;;;13.00;;
17686;SDS011;8962;52.538;13.266;2023-04-21T05:07:54;21.58;;;12.60;;
17686;SDS011;8962;52.538;13.266;2023-04-21T05:10:21;19.23;;;13.13;;
17686;SDS011;8962;52.538;13.266;2023-04-21T05:12:49;23.42;;;13.60;;
17686;SDS011;8962;52.538;13.266;2023-04-21T05:15:16;21.70;;;13.68;;
17686;SDS011;8962;52.538;13.266;2023-04-21T05:17:43;17.92;;;12.65;;
17686;SDS011;8962;52.538;13.266;2023-04-21T05:20:12;19.25;;;12.57;;
17686;SDS011;8962;52.538;13.266;2023-04-21T05:22:39;21.35;;;13.02;;
17686;SDS011;8962;52.538;13.266;2023-04-21T05:25:10;19.88;;;12.98;;
17686;SDS011;8962;52.538;13.266;2023-04-21T05:27:39;21.48;;;12.65;;
17686;SDS011;8962;52.538;13.266;2023-04-21T05:30:07;22.15;;;13.20;;
17686;SDS011;8962;52.538;13.266;2023-04-21T05:32:34;18.48;;;12.48;;
17686;SDS011;8962;52.538;13.266;2023-04-21T05:35:01;24.80;;;13.52;;
17686;SDS011;8962;52.538;13.266;2023-04-21T05:37:29;21.15;;;12.40;;
17686;SDS011;8962;52.538;13.266;2023-04-21T05:39:57;19.83;;;13.57;;
17686;SDS011;8962;52.538;13.266;2023-04-21T05:42:26;22.45;;;13.57;;
17686;SDS011;8962;52.538;13.266;2023-04-21T05:44:54;20.00;;;13.35;;
17686;SDS011;8962;52.538;13.266;2023-04-21T05:47:22;22.35;;;12.50;;
17686;SDS011;8962;52.538;13.266;2023-04-21T05:49:50;18.60;;;12.38;;
17686;SDS011;8962;52.538;13.266;2023-04-21T05:52:17;18.52;;;12.25;;
17686;SDS011;8962;52.538;13.266;2023-04-21T05:54:45;21.77;;;13.23;;
17686;SDS011;8962;52.538;13.266;2023-04-21T05:57:12;22.98;;;12.95;;
17686;SDS011;8962;52.538;13.266;2023-04-21T05:59:42;21.35;;;13.15;;
17686;SDS011;8962;52.538;13.266;2023-04-21T06:02:09;23.55;;;13.57;;
17686;SDS011;8962;52.538;13.266;2023-04-21T06:04:36;19.00;;;13.13;;
17686;SDS011;8962;52.538;13.266;2023-04-21T06:07:04;23.23;;;13.02;;
17686;SDS011;8962;52.538;13.266;2023-04-21T06:09:32;16.92;;;12.05;;
17686;SDS011;8962;52.538;13.266;2023-04-21T06:11:59;20.42;;;12.68;;
17686;SDS011;8962;52.538;13.266;2023-04-21T06:14:26;18.50;;;12.35;;
17686;SDS011;8962;52.538;13.266;2023-04-21T06:16:55;19.88;;;13.02;;
17686;SDS011;8962;52.538;13.266;2023-04-21T06:19:22;23.33;;;12.93;;
17686;SDS011;8962;52.538;13.266;2023-04-21T06:21:50;20.40;;;12.80;;
17686;SDS011;8962;52.538;13.266;2023-04-21T06:24:17;21.52;;;12.70;;
17686;SDS011;8962;52.538;13.266;2023-04-21T06:26:49;16.30;;;12.25;;
17686;SDS011;8962;52.538;13.266;2023-04-21T06:29:16;21.42;;;12.38;;
17686;SDS011;8962;52.538;13.266;2023-04-21T06:31:44;22.05;;;12.52;;
17686;SDS011;8962;52.538;13.266;2023-04-21T06:34:12;22.55;;;12.77;;
17686;SDS011;8962;52.538;13.266;2023-04-21T06:36:40;24.23;;;12.52;;
17686;SDS011;8962;52.538;13.266;2023-04-21T06:39:07;27.30;;;12.77;;
17686;SDS011;8962;52.538;13.266;2023-04-21T06:41:34;21.27;;;12.52;;
17686;SDS011;8962;52.538;13.266;2023-04-21T06:44:01;24.02;;;13.30;;
17686;SDS011;8962;52.538;13.266;2023-04-21T06:46:28;19.80;;;12.27;;
17686;SDS011;8962;52.538;13.266;2023-04-21T06:48:55;22.85;;;12.88;;
17686;SDS011;8962;52.538;13.266;2023-04-21T06:51:24;22.42;;;13.23;;
17686;SDS011;8962;52.538;13.266;2023-04-21T06:53:51;19.33;;;12.05;;
17686;SDS011;8962;52.538;13.266;2023-04-21T06:56:18;20.13;;;12.32;;
17686;SDS011;8962;52.538;13.266;2023-04-21T06:58:47;21.00;;;12.65;;
17686;SDS011;8962;52.538;13.266;2023-04-21T07:01:14;21.77;;;12.35;;
17686;SDS011;8962;52.538;13.266;2023-04-21T07:03:42;17.40;;;12.40;;
17686;SDS011;8962;52.538;13.266;2023-04-21T07:06:09;18.63;;;12.55;;
17686;SDS011;8962;52.538;13.266;2023-04-21T07:08:38;22.80;;;12.65;;
17686;SDS011;8962;52.538;13.266;2023-04-21T07:11:06;20.70;;;12.63;;
17686;SDS011;8962;52.538;13.266;2023-04-21T07:13:33;21.83;;;12.27;;
17686;SDS011;8962;52.538;13.266;2023-04-21T07:16:01;18.85;;;12.35;;
17686;SDS011;8962;52.538;13.266;2023-04-21T07:18:28;23.65;;;12.45;;
17686;SDS011;8962;52.538;13.266;2023-04-21T07:20:55;18.45;;;12.00;;
17686;SDS011;8962;52.538;13.266;2023-04-21T07:23:22;20.25;;;11.45;;
17686;SDS011;8962;52.538;13.266;2023-04-21T07:25:50;20.48;;;11.93;;
17686;SDS011;8962;52.538;13.266;2023-04-21T07:28:19;19.20;;;11.85;;
17686;SDS011;8962;52.538;13.266;2023-04-21T07:30:46;21.48;;;12.23;;
17686;SDS011;8962;52.538;13.266;2023-04-21T07:33:13;18.75;;;11.68;;
17686;SDS011;8962;52.538;13.266;2023-04-21T07:35:40;15.85;;;11.15;;
17686;SDS011;8962;52.538;13.266;2023-04-21T07:38:10;17.85;;;11.57;;
17686;SDS011;8962;52.538;13.266;2023-04-21T07:40:37;20.15;;;11.77;;
17686;SDS011;8962;52.538;13.266;2023-04-21T07:43:06;19.92;;;11.18;;
17686;SDS011;8962;52.538;13.266;2023-04-21T07:45:33;18.70;;;12.02;;
17686;SDS011;8962;52.538;13.266;2023-04-21T07:48:01;17.20;;;11.35;;
17686;SDS011;8962;52.538;13.266;2023-04-21T07:50:28;19.00;;;10.50;;
17686;SDS011;8962;52.538;13.266;2023-04-21T07:52:55;19.13;;;11.32;;
17686;SDS011;8962;52.538;13.266;2023-04-21T07:55:24;18.67;;;11.10;;
17686;SDS011;8962;52.538;13.266;2023-04-21T07:57:51;17.67;;;11.40;;
17686;SDS011;8962;52.538;13.266;2023-04-21T08:00:19;18.13;;;11.25;;
17686;SDS011;8962;52.538;13.266;2023-04-21T08:02:48;20.38;;;11.25;;
17686;SDS011;8962;52.538;13.266;2023-04-21T08:05:15;17.80;;;10.85;;
17686;SDS011;8962;52.538;13.266;2023-04-21T08:07:42;16.58;;;11.57;;
17686;SDS011;8962;52.538;13.266;2023-04-21T08:10:10;14.98;;;10.38;;
17686;SDS011;8962;52.538;13.266;2023-04-21T08:12:39;19.35;;;11.07;;
17686;SDS011;8962;52.538;13.266;2023-04-21T08:15:06;19.02;;;10.82;;
17686;SDS011;8962;52.538;13.266;2023-04-21T08:17:39;18.80;;;11.55;;
17686;SDS011;8962;52.538;13.266;2023-04-21T08:20:07;18.92;;;11.00;;
17686;SDS011;8962;52.538;13.266;2023-04-21T08:22:35;18.27;;;11.27;;
17686;SDS011;8962;52.538;13.266;2023-04-21T08:25:02;18.38;;;10.93;;
17686;SDS011;8962;52.538;13.266;2023-04-21T08:27:31;18.02;;;11.10;;
17686;SDS011;8962;52.538;13.266;2023-04-21T08:29:58;14.50;;;10.18;;
17686;SDS011;8962;52.538;13.266;2023-04-21T08:32:26;19.58;;;10.05;;
17686;SDS011;8962;52.538;13.266;2023-04-21T08:34:55;23.25;;;11.07;;
17686;SDS011;8962;52.538;13.266;2023-04-21T08:37:22;19.05;;;10.70;;
17686;SDS011;8962;52.538;13.266;2023-04-21T08:39:50;14.00;;;10.27;;
17686;SDS011;8962;52.538;13.266;2023-04-21T08:42:18;18.27;;;9.93;;
17686;SDS011;8962;52.538;13.266;2023-04-21T08:44:46;17.88;;;10.30;;
17686;SDS011;8962;52.538;13.266;2023-04-21T08:47:14;13.95;;;9.82;;
17686;SDS011;8962;52.538;13.266;2023-04-21T08:49:41;17.77;;;9.82;;
17686;SDS011;8962;52.538;13.266;2023-04-21T08:52:12;17.08;;;9.85;;
17686;SDS011;8962;52.538;13.266;2023-04-21T08:54:39;14.85;;;9.98;;
17686;SDS011;8962;52.538;13.266;2023-04-21T08:57:06;18.42;;;9.60;;
17686;SDS011;8962;52.538;13.266;2023-04-21T08:59:33;11.90;;;9.23;;
17686;SDS011;8962;52.538;13.266;2023-04-21T09:02:08;13.65;;;10.15;;
17686;SDS011;8962;52.538;13.266;2023-04-21T09:04:37;14.35;;;9.60;;
17686;SDS011;8962;52.538;13.266;2023-04-21T09:07:04;15.77;;;9.55;;
17686;SDS011;8962;52.538;13.266;2023-04-21T09:09:35;14.63;;;10.00;;
17686;SDS011;8962;52.538;13.266;2023-04-21T09:12:19;17.08;;;9.90;;
17686;SDS011;8962;52.538;13.266;2023-04-21T09:14:46;18.83;;;9.15;;
17686;SDS011;8962;52.538;13.266;2023-04-21T09:17:16;17.38;;;9.85;;
17686;SDS011;8962;52.538;13.266;2023-04-21T09:19:45;12.80;;;9.18;;
17686;SDS011;8962;52.538;13.266;2023-04-21T09:22:13;21.55;;;9.18;;
17686;SDS011;8962;52.538;13.266;2023-04-21T09:24:45;18.45;;;9.68;;
17686;SDS011;8962;52.538;13.266;2023-04-21T09:27:14;17.65;;;9.57;;
17686;SDS011;8962;52.538;13.266;2023-04-21T09:29:45;17.55;;;9.27;;
17686;SDS011;8962;52.538;13.266;2023-04-21T09:32:16;14.32;;;8.77;;
17686;SDS011;8962;52.538;13.266;2023-04-21T09:34:44;17.65;;;9.30;;
17686;SDS011;8962;52.538;13.266;2023-04-21T09:37:12;15.48;;;9.23;;
17686;SDS011;8962;52.538;13.266;2023-04-21T09:39:45;15.80;;;9.25;;
17686;SDS011;8962;52.538;13.266;2023-04-21T09:42:12;14.15;;;9.82;;
17686;SDS011;8962;52.538;13.266;2023-04-21T09:44:40;15.30;;;9.68;;
17686;SDS011;8962;52.538;13.266;2023-04-21T09:47:09;12.68;;;8.82;;
17686;SDS011;8962;52.538;13.266;2023-04-21T09:49:38;17.67;;;9.75;;
17686;SDS011;8962;52.538;13.266;2023-04-21T09:52:09;15.38;;;9.25;;
17686;SDS011;8962;52.538;13.266;2023-04-21T09:54:42;14.65;;;9.55;;
17686;SDS011;8962;52.538;13.266;2023-04-21T09:57:18;13.75;;;8.43;;
17686;SDS011;8962;52.538;13.266;2023-04-21T09:59:53;12.23;;;8.57;;
17686;SDS011;8962;52.538;13.266;2023-04-21T10:02:25;14.38;;;8.60;;
17686;SDS011;8962;52.538;13.266;2023-04-21T10:04:56;15.82;;;8.88;;
17686;SDS011;8962;52.538;13.266;2023-04-21T10:07:23;16.15;;;8.88;;
17686;SDS011;8962;52.538;13.266;2023-04-21T10:09:53;12.43;;;8.23;;
17686;SDS011;8962;52.538;13.266;2023-04-21T10:12:22;16.13;;;8.90;;
17686;SDS011;8962;52.538;13.266;2023-04-21T10:14:51;16.98;;;9.10;;
17686;SDS011;8962;52.538;13.266;2023-04-21T10:17:21;17.83;;;10.73;;
17686;SDS011;8962;52.538;13.266;2023-04-21T10:19:50;12.73;;;8.70;;
17686;SDS011;8962;52.538;13.266;2023-04-21T10:22:27;15.18;;;8.65;;
17686;SDS011;8962;52.538;13.266;2023-04-21T10:24:57;16.13;;;8.98;;
17686;SDS011;8962;52.538;13.266;2023-04-21T10:27:33;13.57;;;8.35;;
17686;SDS011;8962;52.538;13.266;2023-04-21T10:30:17;13.10;;;8.57;;
17686;SDS011;8962;52.538;13.266;2023-04-21T10:32:46;11.88;;;8.27;;
17686;SDS011;8962;52.538;13.266;2023-04-21T10:35:36;11.15;;;7.80;;
17686;SDS011;8962;52.538;13.266;2023-04-21T10:38:33;12.70;;;7.85;;
17686;SDS011;8962;52.538;13.266;2023-04-21T10:41:26;11.15;;;7.53;;
17686;SDS011;8962;52.538;13.266;2023-04-21T10:43:56;14.07;;;8.52;;
17686;SDS011;8962;52.538;13.266;2023-04-21T10:46:31;11.30;;;7.80;;
17686;SDS011;8962;52.538;13.266;2023-04-21T10:49:08;10.00;;;8.00;;
17686;SDS011;8962;52.538;13.266;2023-04-21T10:54:35;12.13;;;8.00;;
17686;SDS011;8962;52.538;13.266;2023-04-21T10:57:09;14.93;;;7.97;;
17686;SDS011;8962;52.538;13.266;2023-04-21T10:59:37;12.48;;;7.90;;
17686;SDS011;8962;52.538;13.266;2023-04-21T11:02:05;12.00;;;8.02;;
17686;SDS011;8962;52.538;13.266;2023-04-21T11:04:33;17.80;;;8.00;;
17686;SDS011;8962;52.538;13.266;2023-04-21T11:07:04;12.73;;;7.53;;
17686;SDS011;8962;52.538;13.266;2023-04-21T11:09:33;12.25;;;8.85;;
17686;SDS011;8962;52.538;13.266;2023-04-21T11:12:01;13.15;;;7.90;;
17686;SDS011;8962;52.538;13.266;2023-04-21T11:14:33;11.05;;;7.53;;
17686;SDS011;8962;52.538;13.266;2023-04-21T11:17:02;12.98;;;8.15;;
17686;SDS011;8962;52.538;13.266;2023-04-21T11:19:30;11.88;;;8.00;;
17686;SDS011;8962;52.538;13.266;2023-04-21T11:21:58;15.00;;;8.38;;
17686;SDS011;8962;52.538;13.266;2023-04-21T11:24:27;10.32;;;7.07;;
17686;SDS011;8962;52.538;13.266;2023-04-21T11:26:54;11.80;;;7.55;;
17686;SDS011;8962;52.538;13.266;2023-04-21T11:29:22;13.13;;;7.05;;
17686;SDS011;8962;52.538;13.266;2023-04-21T11:31:51;11.02;;;6.95;;
17686;SDS011;8962;52.538;13.266;2023-04-21T11:34:19;11.25;;;7.13;;
17686;SDS011;8962;52.538;13.266;2023-04-21T11:36:49;20.30;;;7.93;;
17686;SDS011;8962;52.538;13.266;2023-04-21T11:39:16;9.90;;;6.65;;
17686;SDS011;8962;52.538;13.266;2023-04-21T11:41:47;8.95;;;6.63;;
17686;SDS011;8962;52.538;13.266;2023-04-21T11:44:29;14.32;;;7.18;;
17686;SDS011;8962;52.538;13.266;2023-04-21T11:47:10;11.32;;;7.32;;
17686;SDS011;8962;52.538;13.266;2023-04-21T11:49:43;7.63;;;6.03;;
17686;SDS011;8962;52.538;13.266;2023-04-21T11:52:20;11.85;;;6.95;;
17686;SDS011;8962;52.538;13.266;2023-04-21T11:54:53;14.10;;;7.07;;
17686;SDS011;8962;52.538;13.266;2023-04-21T11:57:22;10.05;;;6.28;;
17686;SDS011;8962;52.538;13.266;2023-04-21T11:59:52;13.88;;;6.75;;
17686;SDS011;8962;52.538;13.266;2023-04-21T12:02:22;12.10;;;6.72;;
17686;SDS011;8962;52.538;13.266;2023-04-21T12:05:00;10.95;;;6.03;;
17686;SDS011;8962;52.538;13.266;2023-04-21T12:07:29;10.07;;;6.30;;
17686;SDS011;8962;52.538;13.266;2023-04-21T12:09:57;11.35;;;6.80;;
17686;SDS011;8962;52.538;13.266;2023-04-21T12:12:25;10.02;;;6.38;;
17686;SDS011;8962;52.538;13.266;2023-04-21T12:14:55;9.55;;;6.78;;
17686;SDS011;8962;52.538;13.266;2023-04-21T12:17:25;13.70;;;6.80;;
17686;SDS011;8962;52.538;13.266;2023-04-21T12:19:52;12.90;;;6.97;;
17686;SDS011;8962;52.538;13.266;2023-04-21T12:22:21;10.60;;;6.22;;
17686;SDS011;8962;52.538;13.266;2023-04-21T12:24:48;8.23;;;5.82;;
17686;SDS011;8962;52.538;13.266;2023-04-21T12:27:16;14.13;;;7.50;;
17686;SDS011;8962;52.538;13.266;2023-04-21T12:29:45;13.48;;;7.03;;
17686;SDS011;8962;52.538;13.266;2023-04-21T12:32:12;9.15;;;6.80;;
17686;SDS011;8962;52.538;13.266;2023-04-21T12:34:41;9.20;;;7.03;;
17686;SDS011;8962;52.538;13.266;2023-04-21T12:37:08;10.73;;;8.02;;
17686;SDS011;8962;52.538;13.266;2023-04-21T12:39:35;8.98;;;7.05;;
17686;SDS011;8962;52.538;13.266;2023-04-21T12:42:03;19.48;;;8.90;;
17686;SDS011;8962;52.538;13.266;2023-04-21T12:44:30;11.23;;;7.00;;
17686;SDS011;8962;52.538;13.266;2023-04-21T12:46:57;8.43;;;6.03;;
17686;SDS011;8962;52.538;13.266;2023-04-21T12:49:25;10.77;;;6.03;;
17686;SDS011;8962;52.538;13.266;2023-04-21T12:51:53;9.45;;;6.28;;
17686;SDS011;8962;52.538;13.266;2023-04-21T12:54:21;9.20;;;6.20;;
17686;SDS011;8962;52.538;13.266;2023-04-21T12:56:49;7.68;;;6.47;;
17686;SDS011;8962;52.538;13.266;2023-04-21T12:59:18;8.95;;;6.18;;
17686;SDS011;8962;52.538;13.266;2023-04-21T13:01:46;10.90;;;7.28;;
17686;SDS011;8962;52.538;13.266;2023-04-21T13:04:13;10.60;;;6.15;;
17686;SDS011;8962;52.538;13.266;2023-04-21T13:06:40;7.60;;;5.65;;
17686;SDS011;8962;52.538;13.266;2023-04-21T13:09:09;8.13;;;5.82;;
17686;SDS011;8962;52.538;13.266;2023-04-21T13:11:37;7.93;;;6.43;;
17686;SDS011;8962;52.538;13.266;2023-04-21T13:14:04;9.80;;;6.35;;
17686;SDS011;8962;52.538;13.266;2023-04-21T13:16:32;8.35;;;6.47;;
17686;SDS011;8962;52.538;13.266;2023-04-21T13:18:59;9.80;;;6.13;;
17686;SDS011;8962;52.538;13.266;2023-04-21T13:21:26;11.35;;;6.15;;
17686;SDS011;8962;52.538;13.266;2023-04-21T13:23:53;9.27;;;5.70;;
17686;SDS011;8962;52.538;13.266;2023-04-21T13:26:24;10.30;;;6.22;;
17686;SDS011;8962;52.538;13.266;2023-04-21T13:28:51;8.80;;;5.70;;
17686;SDS011;8962;52.538;13.266;2023-04-21T13:31:21;8.80;;;6.10;;
17686;SDS011;8962;52.538;13.266;2023-04-21T13:33:49;8.52;;;5.45;;
17686;SDS011;8962;52.538;13.266;2023-04-21T13:36:17;6.75;;;5.35;;
17686;SDS011;8962;52.538;13.266;2023-04-21T13:38:46;7.55;;;5.85;;
17686;SDS011;8962;52.538;13.266;2023-04-21T13:41:15;7.95;;;5.50;;
17686;SDS011;8962;52.538;13.266;2023-04-21T13:43:43;8.98;;;5.57;;
17686;SDS011;8962;52.538;13.266;2023-04-21T13:46:11;8.57;;;5.45;;
17686;SDS011;8962;52.538;13.266;2023-04-21T13:48:40;6.35;;;4.93;;
17686;SDS011;8962;52.538;13.266;2023-04-21T13:51:09;6.30;;;5.20;;
17686;SDS011;8962;52.538;13.266;2023-04-21T13:53:37;7.45;;;5.05;;
17686;SDS011;8962;52.538;13.266;2023-04-21T13:56:05;7.28;;;5.40;;
17686;SDS011;8962;52.538;13.266;2023-04-21T13:58:34;13.95;;;5.60;;
17686;SDS011;8962;52.538;13.266;2023-04-21T14:01:02;9.35;;;6.05;;
17686;SDS011;8962;52.538;13.266;2023-04-21T14:03:30;10.30;;;5.22;;
17686;SDS011;8962;52.538;13.266;2023-04-21T14:05:57;7.18;;;5.60;;
17686;SDS011;8962;52.538;13.266;2023-04-21T14:08:27;7.22;;;5.43;;
17686;SDS011;8962;52.538;13.266;2023-04-21T14:10:55;7.38;;;6.15;;
17686;SDS011;8962;52.538;13.266;2023-04-21T14:13:23;9.13;;;5.97;;
17686;SDS011;8962;52.538;13.266;2023-04-21T14:15:53;9.95;;;5.88;;
17686;SDS011;8962;52.538;13.266;2023-04-21T14:18:22;8.57;;;5.55;;
17686;SDS011;8962;52.538;13.266;2023-04-21T14:20:49;6.15;;;5.28;;
17686;SDS011;8962;52.538;13.266;2023-04-21T14:23:16;9.55;;;5.65;;
17686;SDS011;8962;52.538;13.266;2023-04-21T14:25:43;11.73;;;5.50;;
17686;SDS011;8962;52.538;13.266;2023-04-21T14:28:10;8.82;;;5.78;;
17686;SDS011;8962;52.538;13.266;2023-04-21T14:30:37;9.00;;;5.60;;
17686;SDS011;8962;52.538;13.266;2023-04-21T14:33:07;8.48;;;5.90;;
17686;SDS011;8962;52.538;13.266;2023-04-21T14:35:36;9.90;;;5.70;;
17686;SDS011;8962;52.538;13.266;2023-04-21T14:38:03;7.10;;;5.20;;
17686;SDS011;8962;52.538;13.266;2023-04-21T14:40:30;7.13;;;5.10;;
17686;SDS011;8962;52.538;13.266;2023-04-21T14:42:57;10.07;;;5.50;;